Beech Grove, Texas
Current Conditions -  °F | °C
As of 9:55 AM on Tuesday 21 Oct 2014 (Local Time) from KJAS Reporting Station
Clear Clear  
Wind Chill: 66°   Ceiling: Unl
Heat Index: 66°   Visibility: 10mi
Dew Point: 56°   Wind: 3mph
Humidity: 71%   Direction: 60°ENE
Pressure: 30.12"   Gusts: NA
Location:  30.9529°N, 94.0707°W
Report Text: KJAS 211455Z AUTO 06003KT 10SM CLR 19/14 A3012 RMK AO2 T01890136
Loading
Personal Weather Stations






























Interactive Weather Map New forecast layout! Learn more

10-Day Weather Forecast

Advertisements
Track Severe Weather on mobile